sensor_id;sensor_type;location;lat;lon;timestamp;P1;durP1;ratioP1;P2;durP2;ratioP2
62911;SDS011;49111;51.028;4.218;2023-02-26T06:48:59;3.42;;;1.33;;
62911;SDS011;49111;51.028;4.218;2023-02-26T06:51:25;5.55;;;1.55;;
62911;SDS011;49111;51.028;4.218;2023-02-26T06:53:50;4.88;;;1.48;;
62911;SDS011;49111;51.028;4.218;2023-02-26T06:56:16;2.90;;;1.20;;
62911;SDS011;49111;51.028;4.218;2023-02-26T06:58:42;3.50;;;1.00;;
62911;SDS011;49111;51.028;4.218;2023-02-26T07:01:08;2.50;;;1.00;;
62911;SDS011;49111;51.028;4.218;2023-02-26T07:03:34;4.90;;;1.30;;
62911;SDS011;49111;51.028;4.218;2023-02-26T07:06:00;4.57;;;1.80;;
62911;SDS011;49111;51.028;4.218;2023-02-26T07:08:26;1.52;;;1.05;;
62911;SDS011;49111;51.028;4.218;2023-02-26T07:10:51;3.47;;;1.48;;
62911;SDS011;49111;51.028;4.218;2023-02-26T07:13:17;1.63;;;1.20;;
62911;SDS011;49111;51.028;4.218;2023-02-26T07:15:43;5.18;;;1.35;;
62911;SDS011;49111;51.028;4.218;2023-02-26T07:18:09;4.13;;;1.58;;
62911;SDS011;49111;51.028;4.218;2023-02-26T07:20:34;3.63;;;1.30;;
62911;SDS011;49111;51.028;4.218;2023-02-26T07:23:00;3.55;;;1.30;;
62911;SDS011;49111;51.028;4.218;2023-02-26T07:25:26;3.10;;;1.38;;
62911;SDS011;49111;51.028;4.218;2023-02-26T07:27:52;5.07;;;1.70;;
62911;SDS011;49111;51.028;4.218;2023-02-26T07:30:19;4.20;;;1.20;;
62911;SDS011;49111;51.028;4.218;2023-02-26T07:32:44;3.40;;;1.60;;
62911;SDS011;49111;51.028;4.218;2023-02-26T07:35:10;8.70;;;1.63;;
62911;SDS011;49111;51.028;4.218;2023-02-26T07:37:36;3.85;;;1.13;;
62911;SDS011;49111;51.028;4.218;2023-02-26T07:40:02;4.53;;;1.38;;
62911;SDS011;49111;51.028;4.218;2023-02-26T07:42:28;3.15;;;1.23;;
62911;SDS011;49111;51.028;4.218;2023-02-26T07:44:54;3.97;;;1.83;;
62911;SDS011;49111;51.028;4.218;2023-02-26T07:47:20;3.63;;;1.42;;
62911;SDS011;49111;51.028;4.218;2023-02-26T07:49:45;1.67;;;1.00;;
62911;SDS011;49111;51.028;4.218;2023-02-26T07:52:11;5.05;;;1.40;;
62911;SDS011;49111;51.028;4.218;2023-02-26T07:54:37;3.88;;;2.00;;
62911;SDS011;49111;51.028;4.218;2023-02-26T07:57:03;2.60;;;1.73;;
62911;SDS011;49111;51.028;4.218;2023-02-26T07:59:29;2.88;;;1.40;;
62911;SDS011;49111;51.028;4.218;2023-02-26T08:01:55;2.13;;;1.48;;
62911;SDS011;49111;51.028;4.218;2023-02-26T08:04:21;4.50;;;1.48;;
62911;SDS011;49111;51.028;4.218;2023-02-26T08:06:47;2.58;;;1.25;;
62911;SDS011;49111;51.028;4.218;2023-02-26T08:09:13;3.72;;;1.80;;
62911;SDS011;49111;51.028;4.218;2023-02-26T08:11:38;2.45;;;1.20;;
62911;SDS011;49111;51.028;4.218;2023-02-26T08:14:07;2.92;;;1.17;;
62911;SDS011;49111;51.028;4.218;2023-02-26T08:16:34;2.97;;;1.25;;
62911;SDS011;49111;51.028;4.218;2023-02-26T08:19:00;6.82;;;1.65;;
62911;SDS011;49111;51.028;4.218;2023-02-26T08:21:26;6.97;;;1.55;;
62911;SDS011;49111;51.028;4.218;2023-02-26T08:23:52;6.90;;;1.20;;
62911;SDS011;49111;51.028;4.218;2023-02-26T08:26:18;2.95;;;1.52;;
62911;SDS011;49111;51.028;4.218;2023-02-26T08:28:44;3.63;;;1.17;;
62911;SDS011;49111;51.028;4.218;2023-02-26T08:31:11;8.52;;;1.45;;
62911;SDS011;49111;51.028;4.218;2023-02-26T08:33:37;3.20;;;1.10;;
62911;SDS011;49111;51.028;4.218;2023-02-26T08:36:04;3.67;;;1.27;;
62911;SDS011;49111;51.028;4.218;2023-02-26T08:38:30;2.75;;;1.40;;
62911;SDS011;49111;51.028;4.218;2023-02-26T08:40:56;1.58;;;0.90;;
62911;SDS011;49111;51.028;4.218;2023-02-26T08:43:22;4.53;;;1.40;;
62911;SDS011;49111;51.028;4.218;2023-02-26T08:45:51;2.45;;;1.08;;
62911;SDS011;49111;51.028;4.218;2023-02-26T08:48:18;2.28;;;1.33;;
62911;SDS011;49111;51.028;4.218;2023-02-26T08:50:43;3.95;;;1.27;;
62911;SDS011;49111;51.028;4.218;2023-02-26T08:53:09;3.08;;;1.23;;
62911;SDS011;49111;51.028;4.218;2023-02-26T08:55:35;1.25;;;1.15;;
62911;SDS011;49111;51.028;4.218;2023-02-26T08:58:01;1.90;;;1.05;;
62911;SDS011;49111;51.028;4.218;2023-02-26T09:00:27;4.95;;;1.30;;
62911;SDS011;49111;51.028;4.218;2023-02-26T09:02:53;2.38;;;1.17;;
62911;SDS011;49111;51.028;4.218;2023-02-26T09:05:18;3.63;;;1.50;;
62911;SDS011;49111;51.028;4.218;2023-02-26T09:07:44;1.33;;;1.23;;
62911;SDS011;49111;51.028;4.218;2023-02-26T09:10:10;3.17;;;1.23;;
62911;SDS011;49111;51.028;4.218;2023-02-26T09:12:37;1.75;;;1.13;;
62911;SDS011;49111;51.028;4.218;2023-02-26T09:15:03;1.50;;;1.13;;
62911;SDS011;49111;51.028;4.218;2023-02-26T09:17:30;2.88;;;1.88;;
62911;SDS011;49111;51.028;4.218;2023-02-26T09:19:57;1.20;;;1.10;;
62911;SDS011;49111;51.028;4.218;2023-02-26T09:25:29;3.50;;;1.48;;
62911;SDS011;49111;51.028;4.218;2023-02-26T09:27:55;2.25;;;1.20;;
62911;SDS011;49111;51.028;4.218;2023-02-26T09:30:21;2.33;;;1.40;;
62911;SDS011;49111;51.028;4.218;2023-02-26T09:32:46;2.88;;;1.30;;
62911;SDS011;49111;51.028;4.218;2023-02-26T09:35:12;2.47;;;1.10;;
62911;SDS011;49111;51.028;4.218;2023-02-26T09:37:38;1.65;;;1.30;;
62911;SDS011;49111;51.028;4.218;2023-02-26T09:40:04;1.58;;;1.00;;
62911;SDS011;49111;51.028;4.218;2023-02-26T09:45:21;2.55;;;1.33;;
62911;SDS011;49111;51.028;4.218;2023-02-26T09:53:02;1.33;;;1.10;;
62911;SDS011;49111;51.028;4.218;2023-02-26T09:55:39;3.40;;;1.20;;
62911;SDS011;49111;51.028;4.218;2023-02-26T09:58:25;3.00;;;1.30;;
62911;SDS011;49111;51.028;4.218;2023-02-26T10:01:00;2.65;;;1.30;;
62911;SDS011;49111;51.028;4.218;2023-02-26T10:03:48;1.92;;;1.13;;
62911;SDS011;49111;51.028;4.218;2023-02-26T10:09:40;1.35;;;1.15;;
62911;SDS011;49111;51.028;4.218;2023-02-26T10:12:23;2.25;;;2.05;;
62911;SDS011;49111;51.028;4.218;2023-02-26T10:20:40;1.67;;;1.38;;
62911;SDS011;49111;51.028;4.218;2023-02-26T10:23:43;2.90;;;1.27;;
62911;SDS011;49111;51.028;4.218;2023-02-26T10:26:17;3.10;;;1.23;;
62911;SDS011;49111;51.028;4.218;2023-02-26T10:28:58;3.80;;;1.17;;
62911;SDS011;49111;51.028;4.218;2023-02-26T10:39:43;2.83;;;1.02;;
62911;SDS011;49111;51.028;4.218;2023-02-26T10:42:37;2.60;;;1.13;;
62911;SDS011;49111;51.028;4.218;2023-02-26T10:48:08;2.42;;;1.17;;
62911;SDS011;49111;51.028;4.218;2023-02-26T10:51:19;2.13;;;1.10;;
62911;SDS011;49111;51.028;4.218;2023-02-26T10:56:57;2.28;;;1.05;;
62911;SDS011;49111;51.028;4.218;2023-02-26T10:59:26;2.03;;;1.15;;
62911;SDS011;49111;51.028;4.218;2023-02-26T11:01:56;3.10;;;1.00;;
62911;SDS011;49111;51.028;4.218;2023-02-26T11:04:25;1.48;;;0.52;;
62911;SDS011;49111;51.028;4.218;2023-02-26T11:06:53;2.67;;;1.00;;
62911;SDS011;49111;51.028;4.218;2023-02-26T11:09:32;1.05;;;1.00;;
62911;SDS011;49111;51.028;4.218;2023-02-26T11:14:35;2.63;;;1.00;;
62911;SDS011;49111;51.028;4.218;2023-02-26T11:17:11;1.50;;;1.05;;
62911;SDS011;49111;51.028;4.218;2023-02-26T11:19:55;5.88;;;1.30;;
62911;SDS011;49111;51.028;4.218;2023-02-26T11:22:44;6.68;;;1.75;;
62911;SDS011;49111;51.028;4.218;2023-02-26T11:25:17;0.88;;;0.88;;
62911;SDS011;49111;51.028;4.218;2023-02-26T11:27:46;6.93;;;1.77;;
62911;SDS011;49111;51.028;4.218;2023-02-26T11:30:19;3.83;;;1.08;;
62911;SDS011;49111;51.028;4.218;2023-02-26T11:32:50;1.25;;;0.88;;
62911;SDS011;49111;51.028;4.218;2023-02-26T11:35:18;6.18;;;1.10;;
62911;SDS011;49111;51.028;4.218;2023-02-26T11:37:48;1.40;;;1.00;;
62911;SDS011;49111;51.028;4.218;2023-02-26T11:42:48;2.58;;;1.20;;
62911;SDS011;49111;51.028;4.218;2023-02-26T11:45:20;1.50;;;1.10;;
62911;SDS011;49111;51.028;4.218;2023-02-26T11:48:01;1.60;;;0.63;;
62911;SDS011;49111;51.028;4.218;2023-02-26T11:50:30;1.02;;;0.90;;
62911;SDS011;49111;51.028;4.218;2023-02-26T11:53:03;2.05;;;1.00;;
62911;SDS011;49111;51.028;4.218;2023-02-26T11:55:34;1.73;;;0.90;;
62911;SDS011;49111;51.028;4.218;2023-02-26T11:58:22;3.30;;;1.15;;
62911;SDS011;49111;51.028;4.218;2023-02-26T12:00:52;1.10;;;1.08;;
62911;SDS011;49111;51.028;4.218;2023-02-26T12:03:23;3.22;;;1.92;;
62911;SDS011;49111;51.028;4.218;2023-02-26T12:05:56;1.75;;;0.95;;
62911;SDS011;49111;51.028;4.218;2023-02-26T12:08:32;2.35;;;1.08;;
62911;SDS011;49111;51.028;4.218;2023-02-26T12:16:27;1.60;;;0.90;;
62911;SDS011;49111;51.028;4.218;2023-02-26T12:42:44;1.90;;;1.30;;
62911;SDS011;49111;51.028;4.218;2023-02-26T12:45:41;1.27;;;0.95;;
62911;SDS011;49111;51.028;4.218;2023-02-26T13:07:28;1.85;;;1.02;;
62911;SDS011;49111;51.028;4.218;2023-02-26T13:12:57;1.52;;;0.88;;
62911;SDS011;49111;51.028;4.218;2023-02-26T13:21:24;1.55;;;0.82;;
62911;SDS011;49111;51.028;4.218;2023-02-26T13:23:56;1.65;;;0.70;;
62911;SDS011;49111;51.028;4.218;2023-02-26T13:26:35;4.07;;;1.50;;
62911;SDS011;49111;51.028;4.218;2023-02-26T13:29:09;2.00;;;0.82;;
62911;SDS011;49111;51.028;4.218;2023-02-26T13:31:44;2.90;;;1.20;;
62911;SDS011;49111;51.028;4.218;2023-02-26T13:40:11;1.10;;;1.00;;
62911;SDS011;49111;51.028;4.218;2023-02-26T13:45:59;3.75;;;1.05;;
62911;SDS011;49111;51.028;4.218;2023-02-26T13:51:38;1.73;;;0.85;;
62911;SDS011;49111;51.028;4.218;2023-02-26T13:56:41;1.50;;;0.93;;
62911;SDS011;49111;51.028;4.218;2023-02-26T13:59:34;2.45;;;1.10;;
62911;SDS011;49111;51.028;4.218;2023-02-26T14:02:29;2.88;;;1.40;;
62911;SDS011;49111;51.028;4.218;2023-02-26T14:05:27;3.97;;;1.15;;
62911;SDS011;49111;51.028;4.218;2023-02-26T14:10:26;1.25;;;0.85;;
62911;SDS011;49111;51.028;4.218;2023-02-26T14:13:17;3.03;;;1.00;;
62911;SDS011;49111;51.028;4.218;2023-02-26T14:16:19;1.90;;;0.98;;
62911;SDS011;49111;51.028;4.218;2023-02-26T14:21:37;1.17;;;0.90;;
62911;SDS011;49111;51.028;4.218;2023-02-26T14:24:21;0.95;;;0.73;;
62911;SDS011;49111;51.028;4.218;2023-02-26T14:32:32;1.38;;;0.93;;
62911;SDS011;49111;51.028;4.218;2023-02-26T14:35:08;1.58;;;1.48;;
62911;SDS011;49111;51.028;4.218;2023-02-26T14:37:46;1.77;;;1.40;;
62911;SDS011;49111;51.028;4.218;2023-02-26T14:40:28;2.58;;;1.20;;
62911;SDS011;49111;51.028;4.218;2023-02-26T14:43:01;1.08;;;0.95;;
62911;SDS011;49111;51.028;4.218;2023-02-26T14:48:06;1.08;;;0.98;;
62911;SDS011;49111;51.028;4.218;2023-02-26T14:56:21;3.03;;;1.23;;
62911;SDS011;49111;51.028;4.218;2023-02-26T15:01:51;1.58;;;1.13;;
62911;SDS011;49111;51.028;4.218;2023-02-26T15:04:28;3.22;;;0.90;;
62911;SDS011;49111;51.028;4.218;2023-02-26T15:21:10;2.25;;;1.20;;
62911;SDS011;49111;51.028;4.218;2023-02-26T15:23:37;1.85;;;1.00;;
62911;SDS011;49111;51.028;4.218;2023-02-26T15:26:04;1.45;;;1.25;;
62911;SDS011;49111;51.028;4.218;2023-02-26T15:28:32;1.13;;;1.00;;
62911;SDS011;49111;51.028;4.218;2023-02-26T15:31:04;2.27;;;1.03;;
62911;SDS011;49111;51.028;4.218;2023-02-26T15:33:33;4.07;;;1.55;;
62911;SDS011;49111;51.028;4.218;2023-02-26T15:36:00;2.17;;;1.20;;
62911;SDS011;49111;51.028;4.218;2023-02-26T15:38:42;2.28;;;1.10;;
62911;SDS011;49111;51.028;4.218;2023-02-26T15:41:11;1.60;;;1.23;;
62911;SDS011;49111;51.028;4.218;2023-02-26T15:43:38;2.83;;;1.02;;
62911;SDS011;49111;51.028;4.218;2023-02-26T15:46:10;1.98;;;1.40;;
62911;SDS011;49111;51.028;4.218;2023-02-26T15:48:37;2.33;;;1.17;;
62911;SDS011;49111;51.028;4.218;2023-02-26T15:51:08;1.67;;;0.93;;
62911;SDS011;49111;51.028;4.218;2023-02-26T15:53:38;2.70;;;0.75;;
62911;SDS011;49111;51.028;4.218;2023-02-26T15:56:21;1.00;;;0.90;;
62911;SDS011;49111;51.028;4.218;2023-02-26T15:59:00;2.40;;;1.42;;
62911;SDS011;49111;51.028;4.218;2023-02-26T16:01:39;1.75;;;1.40;;
62911;SDS011;49111;51.028;4.218;2023-02-26T16:04:18;1.95;;;0.90;;
62911;SDS011;49111;51.028;4.218;2023-02-26T16:06:47;1.88;;;1.20;;
62911;SDS011;49111;51.028;4.218;2023-02-26T16:12:00;1.73;;;1.20;;
62911;SDS011;49111;51.028;4.218;2023-02-26T16:14:34;3.22;;;1.20;;
62911;SDS011;49111;51.028;4.218;2023-02-26T16:17:03;1.92;;;1.00;;
62911;SDS011;49111;51.028;4.218;2023-02-26T16:19:40;5.07;;;1.10;;
62911;SDS011;49111;51.028;4.218;2023-02-26T16:22:34;4.32;;;0.75;;
62911;SDS011;49111;51.028;4.218;2023-02-26T16:25:23;1.70;;;1.25;;
62911;SDS011;49111;51.028;4.218;2023-02-26T16:28:30;2.08;;;1.17;;
62911;SDS011;49111;51.028;4.218;2023-02-26T16:31:02;2.55;;;1.02;;
62911;SDS011;49111;51.028;4.218;2023-02-26T16:33:31;1.10;;;0.55;;
62911;SDS011;49111;51.028;4.218;2023-02-26T16:36:19;1.48;;;0.90;;
62911;SDS011;49111;51.028;4.218;2023-02-26T16:38:58;1.65;;;1.20;;
62911;SDS011;49111;51.028;4.218;2023-02-26T16:41:35;1.05;;;0.93;;
62911;SDS011;49111;51.028;4.218;2023-02-26T16:44:03;3.45;;;1.00;;
62911;SDS011;49111;51.028;4.218;2023-02-26T16:46:54;3.22;;;0.85;;
62911;SDS011;49111;51.028;4.218;2023-02-26T16:51:49;1.13;;;0.93;;
62911;SDS011;49111;51.028;4.218;2023-02-26T16:54:21;2.92;;;1.08;;
62911;SDS011;49111;51.028;4.218;2023-02-26T16:57:01;1.75;;;1.00;;
62911;SDS011;49111;51.028;4.218;2023-02-26T16:59:30;3.53;;;1.00;;
62911;SDS011;49111;51.028;4.218;2023-02-26T17:01:59;1.70;;;1.10;;
62911;SDS011;49111;51.028;4.218;2023-02-26T17:04:37;3.97;;;2.05;;
62911;SDS011;49111;51.028;4.218;2023-02-26T17:07:04;1.35;;;0.90;;
62911;SDS011;49111;51.028;4.218;2023-02-26T17:09:44;3.78;;;1.10;;
62911;SDS011;49111;51.028;4.218;2023-02-26T17:12:15;1.15;;;0.98;;
62911;SDS011;49111;51.028;4.218;2023-02-26T17:14:50;1.45;;;1.13;;
62911;SDS011;49111;51.028;4.218;2023-02-26T17:17:19;0.80;;;0.50;;
62911;SDS011;49111;51.028;4.218;2023-02-26T17:19:45;1.70;;;0.90;;
62911;SDS011;49111;51.028;4.218;2023-02-26T17:22:12;1.77;;;1.27;;
62911;SDS011;49111;51.028;4.218;2023-02-26T17:24:40;1.13;;;0.95;;
62911;SDS011;49111;51.028;4.218;2023-02-26T17:27:13;3.38;;;1.35;;
62911;SDS011;49111;51.028;4.218;2023-02-26T17:29:55;2.05;;;1.17;;
62911;SDS011;49111;51.028;4.218;2023-02-26T17:32:23;2.40;;;1.15;;
62911;SDS011;49111;51.028;4.218;2023-02-26T17:34:55;3.60;;;1.67;;
62911;SDS011;49111;51.028;4.218;2023-02-26T17:37:22;1.85;;;1.02;;
62911;SDS011;49111;51.028;4.218;2023-02-26T17:39:53;1.35;;;1.25;;
62911;SDS011;49111;51.028;4.218;2023-02-26T17:42:19;2.97;;;1.05;;
62911;SDS011;49111;51.028;4.218;2023-02-26T17:44:47;2.85;;;1.30;;
62911;SDS011;49111;51.028;4.218;2023-02-26T17:47:14;1.73;;;1.02;;
62911;SDS011;49111;51.028;4.218;2023-02-26T17:49:41;2.08;;;1.27;;
62911;SDS011;49111;51.028;4.218;2023-02-26T17:52:08;1.77;;;0.93;;
62911;SDS011;49111;51.028;4.218;2023-02-26T17:54:34;1.10;;;1.00;;
62911;SDS011;49111;51.028;4.218;2023-02-26T17:57:00;2.03;;;1.30;;
62911;SDS011;49111;51.028;4.218;2023-02-26T17:59:27;1.63;;;1.23;;
62911;SDS011;49111;51.028;4.218;2023-02-26T18:01:53;2.30;;;0.95;;
62911;SDS011;49111;51.028;4.218;2023-02-26T18:04:19;1.77;;;1.33;;
62911;SDS011;49111;51.028;4.218;2023-02-26T18:06:45;1.90;;;1.10;;
62911;SDS011;49111;51.028;4.218;2023-02-26T18:09:11;1.98;;;1.10;;
62911;SDS011;49111;51.028;4.218;2023-02-26T18:11:37;2.50;;;0.90;;
62911;SDS011;49111;51.028;4.218;2023-02-26T18:14:04;1.33;;;1.05;;
62911;SDS011;49111;51.028;4.218;2023-02-26T18:16:31;1.70;;;1.25;;
62911;SDS011;49111;51.028;4.218;2023-02-26T18:19:00;6.22;;;1.73;;
62911;SDS011;49111;51.028;4.218;2023-02-26T18:21:26;3.13;;;1.75;;
62911;SDS011;49111;51.028;4.218;2023-02-26T18:23:53;2.95;;;1.73;;
62911;SDS011;49111;51.028;4.218;2023-02-26T18:26:21;1.77;;;1.10;;
62911;SDS011;49111;51.028;4.218;2023-02-26T18:28:49;2.42;;;1.40;;
62911;SDS011;49111;51.028;4.218;2023-02-26T18:31:16;2.33;;;1.48;;
62911;SDS011;49111;51.028;4.218;2023-02-26T18:33:42;62.30;;;40.05;;
62911;SDS011;49111;51.028;4.218;2023-02-26T18:36:30;62.40;;;34.83;;
62911;SDS011;49111;51.028;4.218;2023-02-26T18:39:02;22.42;;;14.65;;
62911;SDS011;49111;51.028;4.218;2023-02-26T18:41:30;9.77;;;6.97;;
62911;SDS011;49111;51.028;4.218;2023-02-26T18:43:57;30.42;;;22.88;;
62911;SDS011;49111;51.028;4.218;2023-02-26T18:46:24;27.52;;;24.75;;
62911;SDS011;49111;51.028;4.218;2023-02-26T18:48:51;3.88;;;2.35;;
62911;SDS011;49111;51.028;4.218;2023-02-26T18:51:17;1.85;;;1.30;;
62911;SDS011;49111;51.028;4.218;2023-02-26T18:53:43;4.70;;;2.28;;
62911;SDS011;49111;51.028;4.218;2023-02-26T18:56:09;2.42;;;1.52;;
62911;SDS011;49111;51.028;4.218;2023-02-26T18:58:38;4.20;;;2.30;;
62911;SDS011;49111;51.028;4.218;2023-02-26T19:01:05;1.70;;;1.60;;
62911;SDS011;49111;51.028;4.218;2023-02-26T19:03:32;1.90;;;1.70;;
62911;SDS011;49111;51.028;4.218;2023-02-26T19:05:59;3.58;;;2.15;;
62911;SDS011;49111;51.028;4.218;2023-02-26T19:08:29;4.88;;;2.35;;
62911;SDS011;49111;51.028;4.218;2023-02-26T19:10:59;3.78;;;2.25;;
62911;SDS011;49111;51.028;4.218;2023-02-26T19:13:26;5.72;;;2.78;;
62911;SDS011;49111;51.028;4.218;2023-02-26T19:15:53;2.25;;;1.42;;
62911;SDS011;49111;51.028;4.218;2023-02-26T19:18:19;2.58;;;2.10;;
62911;SDS011;49111;51.028;4.218;2023-02-26T19:20:46;2.70;;;1.92;;
62911;SDS011;49111;51.028;4.218;2023-02-26T19:23:12;4.50;;;1.42;;
62911;SDS011;49111;51.028;4.218;2023-02-26T19:25:38;1.95;;;1.40;;
